Time;durP1;ratioP1;P1;durP2;ratioP2;P2;SDS_P1;SDS_P2;PMS_P1;PMS_P2;Temp;Humidity;BMP_temperature;BMP_pressure;BME280_temperature;BME280_humidity;BME280_pressure;Samples;Min_cycle;Max_cycle;Signal;HPM_P1;HPM_P2
2023/09/20 00:00:15;;;;;;;7.72;2.75;;;;;;;15.95;60.71;100364.50;5055282;28;20424;-81
2023/09/20 00:02:45;;;;;;;8.05;2.58;;;;;;;15.91;60.47;100360.41;5075062;28;20052;-79
2023/09/20 00:05:15;;;;;;;10.65;2.25;;;;;;;15.88;60.95;100358.00;5042143;28;20047;-80
2023/09/20 00:07:46;;;;;;;10.18;2.90;;;;;;;15.87;60.94;100353.69;5058092;28;20195;-78
2023/09/20 00:10:14;;;;;;;7.30;2.35;;;;;;;15.85;60.96;100360.91;5073147;28;20036;-78
2023/09/20 00:12:51;;;;;;;7.57;2.30;;;;;;;15.85;61.06;100358.25;5071238;28;20056;-82
2023/09/20 00:15:22;;;;;;;9.05;2.75;;;;;;;15.84;61.03;100351.28;5052044;28;20475;-78
2023/09/20 00:17:49;;;;;;;9.52;2.55;;;;;;;15.83;61.44;100357.56;5058678;28;20063;-78
2023/09/20 00:20:21;;;;;;;8.10;2.55;;;;;;;15.83;61.41;100357.56;5038111;28;20058;-77
2023/09/20 00:22:50;;;;;;;9.77;2.92;;;;;;;15.77;61.67;100358.09;5087845;28;20052;-79
2023/09/20 00:25:18;;;;;;;8.90;2.88;;;;;;;15.74;61.74;100353.03;5072011;28;20138;-78
2023/09/20 00:27:47;;;;;;;9.00;2.88;;;;;;;15.65;62.27;100354.66;5088868;28;20067;-77
2023/09/20 00:30:17;;;;;;;8.77;2.90;;;;;;;15.59;62.70;100355.16;5051111;28;20136;-79
2023/09/20 00:32:52;;;;;;;5.25;2.50;;;;;;;15.59;62.98;100353.34;5054829;28;20576;-77
2023/09/20 00:35:21;;;;;;;7.30;3.20;;;;;;;15.57;62.79;100357.91;5050682;28;20151;-78
2023/09/20 00:37:53;;;;;;;10.85;3.25;;;;;;;15.50;63.27;100362.06;5067062;28;20119;-77
2023/09/20 00:40:22;;;;;;;8.07;2.78;;;;;;;15.43;63.57;100355.56;5036329;28;20167;-75
2023/09/20 00:42:50;;;;;;;12.02;3.00;;;;;;;15.35;63.66;100358.84;5070330;28;20082;-75
2023/09/20 00:45:19;;;;;;;8.60;2.55;;;;;;;15.34;64.24;100356.34;5069317;28;20171;-74
2023/09/20 00:47:55;;;;;;;8.82;2.75;;;;;;;15.32;64.51;100358.31;5037359;28;20036;-78
2023/09/20 00:50:27;;;;;;;9.20;3.33;;;;;;;15.25;64.29;100350.00;5068488;28;20047;-72
2023/09/20 00:52:56;;;;;;;9.88;3.20;;;;;;;15.23;64.68;100353.75;5052018;28;20044;-74
2023/09/20 00:55:26;;;;;;;12.18;3.53;;;;;;;15.18;65.14;100346.19;5069905;28;20047;-74
2023/09/20 00:57:59;;;;;;;8.48;3.58;;;;;;;15.16;65.05;100348.94;5037706;28;20422;-74
2023/09/20 01:00:28;;;;;;;7.07;2.78;;;;;;;15.12;65.24;100346.66;5055859;28;20138;-73
2023/09/20 01:02:58;;;;;;;10.77;3.40;;;;;;;15.11;65.55;100350.28;5087390;28;20044;-73
2023/09/20 01:05:26;;;;;;;6.22;2.85;;;;;;;15.07;65.73;100347.03;5052011;28;20064;-74
2023/09/20 01:07:55;;;;;;;9.43;3.20;;;;;;;15.04;65.59;100357.94;5037075;28;20090;-82
2023/09/20 01:10:24;;;;;;;10.70;2.75;;;;;;;15.03;65.49;100369.47;5057161;28;20450;-79
2023/09/20 01:12:54;;;;;;;9.10;2.83;;;;;;;15.04;65.80;100367.66;5052509;28;20052;-80
2023/09/20 01:15:26;;;;;;;9.73;2.72;;;;;;;15.03;65.76;100369.47;5051788;28;20052;-75
2023/09/20 01:17:57;;;;;;;7.00;2.90;;;;;;;14.99;65.88;100377.78;5051227;28;20062;-78
2023/09/20 01:20:25;;;;;;;5.97;3.05;;;;;;;14.96;66.44;100373.59;5067613;28;20528;-77
2023/09/20 01:22:56;;;;;;;9.48;2.90;;;;;;;14.96;66.28;100380.72;5037813;28;20521;-77
2023/09/20 01:25:25;;;;;;;8.73;3.10;;;;;;;14.92;66.49;100378.31;5032746;28;20833;-77
2023/09/20 01:28:01;;;;;;;9.10;3.03;;;;;;;14.89;66.59;100378.53;5051989;28;20097;-74
2023/09/20 01:30:34;;;;;;;8.10;3.05;;;;;;;14.88;66.49;100368.91;5067358;28;20094;-75
2023/09/20 01:33:06;;;;;;;7.05;3.03;;;;;;;14.87;66.79;100363.75;5067902;28;20444;-76
2023/09/20 01:35:35;;;;;;;5.70;2.88;;;;;;;14.83;66.98;100363.16;5065679;28;20187;-75
2023/09/20 01:38:07;;;;;;;7.60;2.78;;;;;;;14.81;67.31;100373.00;5038594;28;20079;-74
2023/09/20 01:40:35;;;;;;;11.73;2.38;;;;;;;14.80;67.55;100366.03;5068792;28;20089;-76
2023/09/20 01:43:11;;;;;;;9.63;2.85;;;;;;;14.79;67.46;100367.00;5073699;28;20567;-82
2023/09/20 01:45:43;;;;;;;6.40;2.58;;;;;;;14.79;67.65;100359.06;5069132;28;20491;-77
2023/09/20 01:48:12;;;;;;;6.80;2.97;;;;;;;14.79;67.98;100360.88;5045448;28;20075;-79
2023/09/20 01:51:07;;;;;;;5.05;3.35;;;;;;;14.73;68.03;100358.72;5074904;28;20048;-78
2023/09/20 01:53:36;;;;;;;5.50;2.67;;;;;;;14.73;68.14;100356.91;5059906;28;20048;-79
2023/09/20 01:56:03;;;;;;;7.78;2.53;;;;;;;14.69;68.44;100361.63;5074436;28;20498;-81
2023/09/20 01:58:32;;;;;;;5.50;2.35;;;;;;;14.71;68.47;100353.53;5076363;28;20056;-77
2023/09/20 02:01:05;;;;;;;7.53;2.38;;;;;;;14.75;68.76;100359.44;5071583;28;20390;-81
2023/09/20 02:03:43;;;;;;;8.25;2.50;;;;;;;14.68;69.00;100349.34;5063883;28;20055;-77
2023/09/20 02:06:12;;;;;;;6.63;2.90;;;;;;;14.67;68.93;100368.00;5090636;28;20081;-78
2023/09/20 02:08:42;;;;;;;6.00;2.72;;;;;;;14.64;69.34;100363.78;5044461;28;20192;-79
2023/09/20 02:11:11;;;;;;;8.80;2.90;;;;;;;14.66;69.58;100366.31;5061329;28;20146;-78
2023/09/20 02:13:41;;;;;;;9.48;2.45;;;;;;;14.71;69.34;100372.06;5057039;28;20055;-77
2023/09/20 02:16:12;;;;;;;6.82;2.50;;;;;;;14.65;69.40;100360.19;5067933;28;20073;-75
2023/09/20 02:18:46;;;;;;;10.45;2.92;;;;;;;14.63;69.58;100364.75;5069370;28;20549;-77
2023/09/20 02:21:19;;;;;;;6.47;3.13;;;;;;;14.62;69.92;100360.41;5071301;28;20060;-77
2023/09/20 02:23:48;;;;;;;10.02;3.28;;;;;;;14.61;70.22;100363.19;5053259;28;20093;-75
2023/09/20 02:26:18;;;;;;;6.25;2.58;;;;;;;14.63;70.26;100362.13;5042504;28;20052;-78
2023/09/20 02:28:46;;;;;;;7.15;2.90;;;;;;;14.66;70.30;100367.16;5069929;28;20044;-76
2023/09/20 02:31:17;;;;;;;8.30;2.50;;;;;;;14.66;70.48;100353.91;5055383;28;20056;-71
2023/09/20 02:33:46;;;;;;;4.47;2.20;;;;;;;14.67;70.43;100362.69;5083942;28;20101;-78
2023/09/20 02:36:14;;;;;;;8.63;2.22;;;;;;;14.66;70.44;100353.06;5054499;28;20083;-78
2023/09/20 02:38:42;;;;;;;8.15;2.97;;;;;;;14.75;70.51;100359.44;5090794;28;20044;-78
2023/09/20 02:41:13;;;;;;;8.73;2.63;;;;;;;14.74;70.46;100348.00;5072041;28;20079;-78
2023/09/20 02:43:41;;;;;;;8.48;2.90;;;;;;;14.73;70.54;100351.63;5054803;28;20083;-78
2023/09/20 02:46:09;;;;;;;8.27;2.47;;;;;;;14.72;70.71;100351.72;5072359;28;20055;-80
2023/09/20 02:48:38;;;;;;;7.93;3.35;;;;;;;14.70;71.08;100351.84;5053928;28;20036;-79
2023/09/20 02:51:06;;;;;;;6.47;2.15;;;;;;;14.67;71.43;100350.28;5058737;28;20095;-78
2023/09/20 02:53:35;;;;;;;7.95;3.20;;;;;;;14.72;71.31;100354.38;5072550;28;20457;-80
2023/09/20 02:56:05;;;;;;;6.32;2.30;;;;;;;14.78;71.28;100345.94;5056243;28;20056;-78
2023/09/20 02:58:33;;;;;;;6.28;2.25;;;;;;;14.78;71.09;100356.53;5056894;28;20103;-76
2023/09/20 03:01:02;;;;;;;5.93;2.00;;;;;;;14.75;71.49;100349.66;5053191;28;20066;-75
2023/09/20 03:03:29;;;;;;;10.48;2.90;;;;;;;14.76;71.56;100343.41;5072331;28;20064;-78
2023/09/20 03:06:07;;;;;;;5.63;2.58;;;;;;;14.77;71.41;100337.16;5056303;28;20052;-79
2023/09/20 03:08:44;;;;;;;4.68;2.20;;;;;;;14.84;71.49;100340.97;5070261;28;20139;-79
2023/09/20 03:11:21;;;;;;;7.90;2.50;;;;;;;14.83;71.45;100333.16;5052808;28;20068;-79
2023/09/20 03:13:51;;;;;;;5.53;2.20;;;;;;;14.84;71.29;100332.19;5069981;28;20067;-78
2023/09/20 03:16:21;;;;;;;7.75;2.65;;;;;;;14.84;71.92;100330.38;5072123;28;20506;-74
2023/09/20 03:18:50;;;;;;;3.95;2.03;;;;;;;14.86;71.71;100335.53;5053973;28;20044;-78
2023/09/20 03:21:19;;;;;;;8.60;2.88;;;;;;;14.88;71.76;100338.91;5055792;28;20105;-79
2023/09/20 03:23:47;;;;;;;7.18;2.72;;;;;;;14.88;71.81;100334.47;5039323;28;20479;-78
2023/09/20 03:26:15;;;;;;;4.38;2.13;;;;;;;14.90;72.09;100342.28;5071234;28;20067;-78
2023/09/20 03:28:46;;;;;;;7.68;2.75;;;;;;;14.92;71.87;100341.19;5053854;28;20052;-78
2023/09/20 03:31:15;;;;;;;4.15;2.28;;;;;;;14.94;71.93;100346.38;5067226;28;20113;-78
2023/09/20 03:33:47;;;;;;;5.53;2.28;;;;;;;14.95;71.92;100337.47;5073957;28;20055;-80
2023/09/20 03:36:17;;;;;;;6.57;2.40;;;;;;;14.96;72.44;100349.75;5038544;28;20372;-79
2023/09/20 03:38:47;;;;;;;7.72;2.53;;;;;;;14.90;72.27;100347.56;5059995;28;20036;-79
2023/09/20 03:41:15;;;;;;;5.63;2.85;;;;;;;14.85;72.40;100340.00;5075821;28;20044;-80
2023/09/20 03:43:45;;;;;;;9.90;2.75;;;;;;;14.83;72.76;100336.66;5059633;28;20079;-80
2023/09/20 03:46:17;;;;;;;9.45;2.45;;;;;;;14.84;72.85;100332.19;5075153;28;20128;-81
2023/09/20 03:48:45;;;;;;;7.25;2.90;;;;;;;14.83;72.79;100335.81;5067682;28;20052;-84
2023/09/20 03:51:17;;;;;;;7.40;2.45;;;;;;;14.75;73.51;100340.88;5059877;28;20044;-86
2023/09/20 03:53:49;;;;;;;9.23;2.45;;;;;;;14.72;73.89;100328.72;5083459;28;20195;-78
2023/09/20 03:56:19;;;;;;;7.13;2.78;;;;;;;14.74;73.94;100332.09;5058847;28;20498;-76
2023/09/20 03:58:48;;;;;;;5.72;2.38;;;;;;;14.73;74.01;100334.88;5073413;28;20044;-77
2023/09/20 04:01:15;;;;;;;9.93;2.58;;;;;;;14.72;73.95;100335.81;5043547;28;20071;-75
2023/09/20 04:03:43;;;;;;;8.75;2.15;;;;;;;14.72;74.29;100341.13;5093996;28;20044;-71
2023/09/20 04:06:13;;;;;;;5.45;2.78;;;;;;;14.68;74.61;100338.75;5058676;28;20115;-85
2023/09/20 04:08:41;;;;;;;4.40;2.08;;;;;;;14.67;75.01;100337.03;5084665;28;20087;-78
2023/09/20 04:11:12;;;;;;;7.32;2.38;;;;;;;14.72;74.71;100335.81;5055552;28;20100;-79
2023/09/20 04:13:40;;;;;;;11.43;2.80;;;;;;;14.73;75.08;100332.22;5057837;28;20039;-79
2023/09/20 04:16:08;;;;;;;6.97;2.22;;;;;;;14.69;75.48;100344.88;5056164;28;20076;-79
2023/09/20 04:18:35;;;;;;;9.10;2.92;;;;;;;14.64;75.82;100337.31;5057617;28;20491;-78
2023/09/20 04:21:03;;;;;;;7.97;2.53;;;;;;;14.59;76.01;100339.47;5063375;28;20126;-79
2023/09/20 04:23:32;;;;;;;7.20;2.60;;;;;;;14.58;76.45;100343.06;5075644;28;20551;-78
2023/09/20 04:25:59;;;;;;;4.68;2.22;;;;;;;14.57;76.83;100336.09;5075340;28;20071;-78
2023/09/20 04:28:27;;;;;;;6.57;2.35;;;;;;;14.59;76.81;100338.59;5075434;28;20218;-79
2023/09/20 04:30:54;;;;;;;8.32;2.40;;;;;;;14.56;76.98;100341.53;5073441;28;20052;-76
2023/09/20 04:33:22;;;;;;;6.32;2.50;;;;;;;14.56;78.00;100347.66;5052345;28;20052;-71
2023/09/20 04:35:49;;;;;;;5.18;2.17;;;;;;;14.52;77.75;100332.97;5051257;28;20121;-71
2023/09/20 04:38:17;;;;;;;9.23;3.03;;;;;;;14.49;78.00;100348.25;5035665;28;20890;-70
2023/09/20 04:40:44;;;;;;;6.95;2.58;;;;;;;14.47;78.52;100345.72;5053509;28;20064;-71
2023/09/20 04:43:14;;;;;;;8.18;3.13;;;;;;;14.46;78.64;100345.84;5068978;28;20079;-69
2023/09/20 04:45:41;;;;;;;7.30;2.90;;;;;;;14.48;79.04;100352.72;5037703;28;20055;-71
2023/09/20 04:48:08;;;;;;;10.43;2.67;;;;;;;14.48;78.66;100355.38;5052963;28;20105;-71
2023/09/20 04:50:36;;;;;;;7.55;2.67;;;;;;;14.49;78.95;100364.16;5068485;28;20135;-70
2023/09/20 04:53:04;;;;;;;4.25;2.47;;;;;;;14.51;79.08;100363.09;5067165;28;20129;-70
2023/09/20 04:55:34;;;;;;;8.70;2.67;;;;;;;14.50;79.03;100368.47;5057720;28;20300;-70
2023/09/20 04:58:02;;;;;;;7.30;2.80;;;;;;;14.46;79.30;100369.69;5027856;28;20044;-71
2023/09/20 05:00:37;;;;;;;7.85;2.85;;;;;;;14.46;79.77;100372.34;5044297;28;20075;-72
2023/09/20 05:03:05;;;;;;;;;;;;;;;14.43;80.15;100368.94;5065503;28;20044;-71
2023/09/20 05:05:34;;;;;;;8.75;2.67;;;;;;;14.46;79.76;100369.69;5048470;28;19973;-71
2023/09/20 05:08:06;;;;;;;10.15;2.92;;;;;;;14.48;80.07;100373.03;5061787;28;20132;-71
2023/09/20 05:10:34;;;;;;;14.45;2.97;;;;;;;14.50;80.35;100379.06;5048184;28;20048;-70
2023/09/20 05:13:01;;;;;;;7.72;2.80;;;;;;;14.49;80.54;100375.59;5077307;28;20052;-71
2023/09/20 05:15:29;;;;;;;7.20;2.58;;;;;;;14.50;80.72;100371.13;5065685;28;20466;-70
2023/09/20 05:18:00;;;;;;;8.38;2.50;;;;;;;14.56;80.74;100376.81;5053660;28;20048;-71
2023/09/20 05:20:31;;;;;;;7.53;2.75;;;;;;;14.60;80.58;100377.41;5074273;28;20051;-70
2023/09/20 05:22:59;;;;;;;10.70;3.17;;;;;;;14.65;80.29;100375.22;5062272;28;20336;-71
2023/09/20 05:25:26;;;;;;;6.95;2.42;;;;;;;14.63;80.25;100380.66;5066941;28;20040;-71
2023/09/20 05:27:54;;;;;;;9.70;3.03;;;;;;;14.66;80.59;100374.25;5065986;28;20127;-70
2023/09/20 05:30:22;;;;;;;6.53;2.78;;;;;;;14.71;80.50;100379.19;5033241;28;20097;-71
2023/09/20 05:32:51;;;;;;;6.72;2.38;;;;;;;14.76;80.65;100377.00;5069868;28;20043;-72
2023/09/20 05:35:19;;;;;;;5.85;2.35;;;;;;;14.78;80.62;100381.22;5034712;28;20520;-72
2023/09/20 05:37:48;;;;;;;8.25;2.85;;;;;;;14.79;80.70;100382.91;5055368;28;20089;-74
2023/09/20 05:40:18;;;;;;;5.53;2.67;;;;;;;14.79;80.82;100382.91;5072194;28;20063;-78
2023/09/20 05:42:46;;;;;;;9.60;2.42;;;;;;;14.81;80.84;100382.78;5055710;28;20127;-75
2023/09/20 05:45:14;;;;;;;9.07;2.58;;;;;;;14.86;80.91;100391.19;5035048;28;20132;-75
2023/09/20 05:47:42;;;;;;;7.80;2.60;;;;;;;14.92;80.68;100386.25;5041938;28;20056;-74
2023/09/20 05:50:10;;;;;;;17.00;2.55;;;;;;;14.94;80.45;100402.03;5058942;28;20059;-75
2023/09/20 05:52:40;;;;;;;6.38;2.47;;;;;;;15.00;80.73;100398.91;5067455;28;20121;-74
2023/09/20 05:55:14;;;;;;;8.50;2.30;;;;;;;15.05;80.49;100399.38;5088189;28;20056;-74
2023/09/20 05:57:43;;;;;;;6.95;2.10;;;;;;;15.03;80.65;100395.13;5074572;28;20058;-75
2023/09/20 06:00:21;;;;;;;8.65;2.30;;;;;;;15.03;80.77;100393.31;5043165;28;20082;-76
2023/09/20 06:02:52;;;;;;;7.70;2.60;;;;;;;15.08;80.61;100392.94;5069906;28;20055;-73
2023/09/20 06:05:19;;;;;;;11.20;3.05;;;;;;;15.14;80.31;100398.63;5080548;28;20070;-74
2023/09/20 06:07:47;;;;;;;6.80;2.78;;;;;;;15.17;80.31;100401.03;5069392;28;20547;-74
2023/09/20 06:10:18;;;;;;;10.23;3.10;;;;;;;15.24;80.45;100403.16;5057223;28;20707;-73
2023/09/20 06:12:46;;;;;;;7.80;3.15;;;;;;;15.34;80.08;100398.78;5061982;28;20056;-74
2023/09/20 06:15:14;;;;;;;8.05;2.45;;;;;;;15.38;80.08;100406.34;5060115;28;20047;-74
2023/09/20 06:17:48;;;;;;;6.32;2.78;;;;;;;15.34;80.38;100409.38;5044157;28;20044;-74
2023/09/20 06:20:24;;;;;;;5.93;3.15;;;;;;;15.51;79.92;100397.41;5076132;28;20044;-74
2023/09/20 06:22:53;;;;;;;5.22;2.08;;;;;;;15.62;79.43;100392.84;5044292;28;20075;-75
2023/09/20 06:25:21;;;;;;;9.77;3.05;;;;;;;15.75;78.71;100397.19;5059183;28;20544;-76
2023/09/20 06:27:50;;;;;;;7.15;2.17;;;;;;;15.95;78.26;100394.53;5055263;28;20068;-72
2023/09/20 06:30:20;;;;;;;8.25;2.28;;;;;;;16.10;77.18;100396.84;5053984;28;20139;-76
2023/09/20 06:32:48;;;;;;;11.98;2.40;;;;;;;16.24;77.17;100406.28;5084870;28;20147;-74
2023/09/20 06:35:19;;;;;;;12.20;2.85;;;;;;;16.29;76.54;100409.38;5053134;28;20119;-74
2023/09/20 06:37:48;;;;;;;7.82;2.53;;;;;;;16.28;76.84;100405.88;5055864;28;20490;-74
2023/09/20 06:40:33;;;;;;;10.82;2.90;;;;;;;16.42;76.17;100394.91;5039871;28;20499;-74
2023/09/20 06:43:03;;;;;;;10.90;2.60;;;;;;;16.62;75.25;100400.31;5072760;28;20127;-74
2023/09/20 06:45:32;;;;;;;8.65;2.67;;;;;;;16.73;74.94;100404.69;5053303;28;20049;-74
2023/09/20 06:48:00;;;;;;;7.30;2.22;;;;;;;16.77;74.90;100403.44;5042175;28;20153;-73
2023/09/20 06:50:29;;;;;;;10.70;2.28;;;;;;;16.94;74.26;100416.94;5068443;28;20056;-75
2023/09/20 06:52:57;;;;;;;6.55;1.98;;;;;;;17.10;73.30;100415.56;5069871;28;20052;-73
2023/09/20 06:55:25;;;;;;;6.53;2.40;;;;;;;17.25;72.91;100419.50;5055125;28;20040;-73
2023/09/20 06:57:53;;;;;;;10.57;2.83;;;;;;;17.41;71.98;100422.44;5065608;28;20054;-72
2023/09/20 07:00:41;;;;;;;8.75;2.03;;;;;;;17.49;72.08;100423.59;5045207;28;20083;-74
2023/09/20 07:03:10;;;;;;;6.47;2.10;;;;;;;17.62;71.73;100418.81;5057064;28;20579;-75
2023/09/20 07:05:37;;;;;;;10.60;2.53;;;;;;;17.81;70.65;100418.00;5051989;28;20110;-75
2023/09/20 07:08:05;;;;;;;12.02;1.90;;;;;;;17.71;70.46;100418.81;5058755;28;20050;-73
2023/09/20 07:10:33;;;;;;;6.35;2.05;;;;;;;17.90;69.90;100430.47;5071850;28;20058;-73
2023/09/20 07:13:01;;;;;;;10.02;1.98;;;;;;;17.88;70.38;100427.94;5055705;28;20055;-74
2023/09/20 07:15:28;;;;;;;3.28;2.08;;;;;;;17.95;69.85;100420.22;5066299;28;20048;-76
2023/09/20 07:17:59;;;;;;;7.35;2.15;;;;;;;18.08;69.15;100425.25;5068891;28;20499;-77
2023/09/20 07:20:31;;;;;;;6.30;2.15;;;;;;;18.17;68.93;100435.88;5036442;28;20106;-73
2023/09/20 07:22:58;;;;;;;5.93;2.00;;;;;;;18.20;69.23;100435.59;5037674;28;20402;-75
2023/09/20 07:25:27;;;;;;;4.40;1.90;;;;;;;18.14;69.39;100425.50;5071822;28;20522;-75
2023/09/20 07:27:58;;;;;;;5.03;1.95;;;;;;;18.05;69.67;100426.34;5055334;28;20120;-73
2023/09/20 07:30:31;;;;;;;5.90;2.40;;;;;;;18.15;69.27;100437.84;5051760;28;20135;-73
2023/09/20 07:33:02;;;;;;;8.45;2.40;;;;;;;18.44;68.76;100420.94;5069007;28;20079;-75
2023/09/20 07:35:38;;;;;;;10.45;2.80;;;;;;;18.52;68.77;100423.72;5050493;28;20098;-72
2023/09/20 07:38:17;;;;;;;12.98;2.60;;;;;;;18.59;68.08;100424.78;5032622;28;20089;-74
2023/09/20 07:40:47;;;;;;;4.72;2.00;;;;;;;18.75;67.19;100420.69;5055765;28;20560;-74
2023/09/20 07:43:15;;;;;;;9.02;2.28;;;;;;;18.87;66.96;100423.00;5066125;28;20080;-74
2023/09/20 07:45:55;;;;;;;7.47;2.28;;;;;;;19.07;66.64;100423.72;5040478;28;20079;-75
2023/09/20 07:48:24;;;;;;;6.63;1.92;;;;;;;19.07;66.00;100430.91;5073016;28;20093;-73
2023/09/20 07:50:52;;;;;;;6.18;1.50;;;;;;;19.00;66.14;100424.47;5073590;28;20079;-73
2023/09/20 07:53:21;;;;;;;8.57;2.13;;;;;;;19.12;65.68;100431.28;5054660;28;20098;-74
2023/09/20 07:56:00;;;;;;;3.40;1.88;;;;;;;19.00;66.15;100427.97;5048438;28;20067;-74
2023/09/20 07:58:28;;;;;;;4.57;1.67;;;;;;;19.05;65.99;100424.84;5042594;28;20051;-73
2023/09/20 08:00:59;;;;;;;7.07;2.35;;;;;;;19.32;65.50;100448.84;5071260;28;20093;-73
2023/09/20 08:03:32;;;;;;;9.20;2.35;;;;;;;19.37;65.19;100432.38;5067590;28;20517;-74
2023/09/20 08:05:59;;;;;;;8.70;1.80;;;;;;;19.45;64.97;100437.78;5069577;28;20131;-74
2023/09/20 08:08:27;;;;;;;11.38;2.08;;;;;;;19.66;63.55;100434.84;5068254;28;20046;-73
2023/09/20 08:10:54;;;;;;;10.85;2.53;;;;;;;19.83;63.21;100438.50;5070023;28;20123;-75
2023/09/20 08:13:40;;;;;;;5.35;1.75;;;;;;;19.86;63.16;100448.88;5069079;28;20060;-73
2023/09/20 08:16:10;;;;;;;7.40;1.90;;;;;;;19.92;62.93;100457.09;5088261;28;20130;-74
2023/09/20 08:21:29;;;;;;;6.93;2.03;;;;;;;19.96;62.56;100457.63;5088668;28;20506;-73
2023/09/20 09:00:18;;;;;;;10.35;2.08;;;;;;;20.92;59.73;100454.88;5065930;28;20071;-75
2023/09/20 09:02:51;;;;;;;7.22;2.03;;;;;;;21.10;59.16;100442.22;5045982;28;20156;-73
2023/09/20 09:05:23;;;;;;;5.90;1.80;;;;;;;21.18;59.29;100444.94;5044284;28;20131;-76
2023/09/20 09:07:51;;;;;;;10.10;2.45;;;;;;;21.20;58.50;100447.44;5025434;28;20067;-74
2023/09/20 09:10:18;;;;;;;4.45;1.63;;;;;;;21.57;58.26;100439.03;5059055;28;20071;-74
2023/09/20 09:12:46;;;;;;;6.10;2.00;;;;;;;21.36;58.56;100444.84;5059741;28;20131;-74
2023/09/20 09:15:16;;;;;;;4.28;1.55;;;;;;;21.46;57.94;100436.66;5027945;28;20163;-74
2023/09/20 09:17:47;;;;;;;9.82;2.17;;;;;;;21.52;58.38;100435.13;5037332;28;20053;-74
2023/09/20 09:20:18;;;;;;;4.80;2.45;;;;;;;21.16;58.67;100433.56;5056247;28;20138;-74
2023/09/20 09:22:48;;;;;;;8.75;2.08;;;;;;;21.01;59.22;100432.50;5060617;28;20461;-75
2023/09/20 09:25:24;;;;;;;5.57;1.88;;;;;;;21.10;59.74;100436.03;5042511;28;20510;-73
2023/09/20 09:27:53;;;;;;;7.20;1.98;;;;;;;21.02;59.91;100431.50;5039039;28;20084;-75
2023/09/20 09:30:21;;;;;;;9.50;2.50;;;;;;;21.17;59.75;100434.41;5043968;28;20117;-77
2023/09/20 09:32:50;;;;;;;4.55;1.95;;;;;;;21.29;59.56;100432.22;5061045;28;20048;-73
2023/09/20 09:35:21;;;;;;;16.48;2.83;;;;;;;21.15;59.50;100439.91;5042082;28;20052;-71
2023/09/20 09:38:08;;;;;;;5.05;2.08;;;;;;;20.82;60.28;100432.78;5051780;28;20079;-70
2023/09/20 09:40:58;;;;;;;3.80;1.90;;;;;;;20.90;60.42;100436.31;5030257;28;20176;-74
2023/09/20 09:43:30;;;;;;;4.65;1.92;;;;;;;20.90;60.32;100435.50;5057855;28;20124;-72
2023/09/20 09:49:24;;;;;;;11.38;2.20;;;;;;;20.63;60.98;100431.19;5071653;28;20406;-72
2023/09/20 09:51:52;;;;;;;12.32;1.88;;;;;;;20.41;61.71;100429.88;5062126;28;20079;-73
2023/09/20 09:54:20;;;;;;;11.52;2.13;;;;;;;20.51;61.38;100446.66;5040310;28;20140;-72
2023/09/20 09:56:48;;;;;;;8.70;2.47;;;;;;;20.44;61.53;100435.75;5060868;28;20129;-74
2023/09/20 09:59:16;;;;;;;7.18;1.90;;;;;;;20.48;61.49;100437.13;5065717;28;20048;-71
2023/09/20 10:01:45;;;;;;;9.73;2.15;;;;;;;20.43;61.18;100433.22;5063296;28;20491;-72
2023/09/20 10:04:17;;;;;;;6.13;1.92;;;;;;;20.30;62.19;100435.47;5062254;28;20147;-72
2023/09/20 10:06:45;;;;;;;8.60;1.73;;;;;;;20.32;61.68;100423.66;5051792;28;20058;-73
2023/09/20 10:09:13;;;;;;;9.68;2.42;;;;;;;20.61;61.39;100423.31;5055977;28;20047;-73
2023/09/20 10:11:41;;;;;;;8.27;1.85;;;;;;;20.84;61.27;100423.56;5067636;28;20068;-72
2023/09/20 10:14:10;;;;;;;10.45;2.13;;;;;;;21.16;59.57;100427.34;5060103;28;20063;-73
2023/09/20 10:16:42;;;;;;;5.80;1.77;;;;;;;21.43;59.66;100423.56;5059965;28;20048;-72
2023/09/20 10:19:13;;;;;;;5.28;2.45;;;;;;;21.49;58.39;100425.63;5060438;28;20132;-72
2023/09/20 10:22:01;;;;;;;11.25;2.47;;;;;;;21.76;58.33;100416.41;5060580;28;20467;-70
2023/09/20 10:24:28;;;;;;;14.40;6.68;;;;;;;21.87;56.92;100413.38;5044349;28;20135;-73
2023/09/20 10:27:02;;;;;;;9.43;2.97;;;;;;;22.04;56.75;100430.28;5049684;28;20087;-72
2023/09/20 10:29:32;;;;;;;7.80;2.10;;;;;;;21.60;57.32;100417.22;5071077;28;20142;-71
2023/09/20 10:32:17;;;;;;;14.20;2.65;;;;;;;21.74;57.20;100418.41;5043793;28;20043;-69
2023/09/20 10:35:19;;;;;;;8.55;2.30;;;;;;;22.24;56.69;100399.47;5062548;28;20535;-69
2023/09/20 10:38:25;;;;;;;8.40;2.20;;;;;;;22.13;55.96;100407.03;5043872;28;20134;-70
2023/09/20 10:40:57;;;;;;;10.77;2.30;;;;;;;22.11;56.31;100407.16;5049072;28;20072;-69
2023/09/20 10:43:36;;;;;;;8.73;2.20;;;;;;;22.01;56.83;100406.50;5058704;28;20604;-69
2023/09/20 10:46:07;;;;;;;9.68;2.42;;;;;;;22.37;56.46;100400.75;5046642;28;20048;-64
2023/09/20 10:48:38;;;;;;;5.13;2.38;;;;;;;22.83;55.19;100395.53;5040799;28;20136;-66
2023/09/20 10:51:07;;;;;;;7.00;2.25;;;;;;;23.14;53.99;100401.75;5082124;28;20079;-76
2023/09/20 10:53:52;;;;;;;4.22;1.67;;;;;;;23.28;52.92;100392.13;5050822;28;20139;-77
2023/09/20 10:56:50;;;;;;;7.97;2.25;;;;;;;23.30;53.12;100383.88;5079798;28;20136;-77
2023/09/20 10:59:25;;;;;;;8.02;2.00;;;;;;;23.68;52.66;100369.47;5051826;28;20167;-77
2023/09/20 11:02:08;;;;;;;9.00;2.00;;;;;;;23.91;51.96;100372.16;5044327;28;20048;-77
2023/09/20 11:04:37;;;;;;;9.20;2.67;;;;;;;23.78;51.85;100371.94;5045232;28;20066;-78
2023/09/20 11:07:06;;;;;;;10.23;2.40;;;;;;;23.80;51.74;100375.25;5049620;28;20250;-77
2023/09/20 11:09:34;;;;;;;6.28;1.80;;;;;;;23.84;51.61;100375.72;5063828;28;20079;-77
2023/09/20 11:12:11;;;;;;;5.00;1.80;;;;;;;23.68;51.10;100376.72;5059104;28;20431;-77
2023/09/20 11:14:41;;;;;;;4.35;1.38;;;;;;;23.53;51.52;100368.56;5026560;28;20040;-77
2023/09/20 11:17:13;;;;;;;4.32;2.30;;;;;;;23.40;51.81;100369.19;5049801;28;20079;-78
2023/09/20 11:19:41;;;;;;;10.95;3.75;;;;;;;23.25;51.73;100368.31;5063933;28;20056;-76
2023/09/20 11:22:09;;;;;;;16.63;2.20;;;;;;;23.41;51.41;100368.16;5046368;28;20036;-77
2023/09/20 11:24:40;;;;;;;5.22;1.83;;;;;;;23.33;51.33;100368.25;5045989;28;20095;-78
2023/09/20 11:27:08;;;;;;;26.45;3.25;;;;;;;23.13;52.07;100367.03;5049361;28;20758;-77
2023/09/20 11:29:40;;;;;;;7.65;2.08;;;;;;;23.33;51.87;100372.78;5060166;28;20124;-78
2023/09/20 11:32:12;;;;;;;3.85;1.80;;;;;;;23.70;51.89;100372.00;5050506;28;20559;-80
2023/09/20 11:34:44;;;;;;;7.68;2.03;;;;;;;23.64;51.14;100361.94;5039945;28;20099;-80
2023/09/20 11:37:17;;;;;;;11.25;2.78;;;;;;;23.69;51.22;100363.09;5054465;28;20064;-81
2023/09/20 11:39:47;;;;;;;11.90;2.58;;;;;;;23.63;51.73;100369.16;5055844;28;20055;-81
2023/09/20 11:42:29;;;;;;;8.07;1.95;;;;;;;23.56;51.86;100368.22;5049900;28;20060;-78
2023/09/20 11:44:58;;;;;;;4.93;2.22;;;;;;;23.43;52.10;100371.53;5037910;28;20193;-76
2023/09/20 11:47:46;;;;;;;5.93;1.80;;;;;;;23.23;52.44;100381.06;5051534;28;20109;-76
2023/09/20 11:50:14;;;;;;;9.20;2.30;;;;;;;23.34;51.92;100372.59;5043430;28;20143;-74
2023/09/20 11:52:47;;;;;;;24.88;3.38;;;;;;;23.64;51.53;100375.38;5064425;28;20075;-75
2023/09/20 11:55:15;;;;;;;5.28;1.90;;;;;;;23.87;50.81;100375.38;5067812;28;20135;-75
2023/09/20 11:57:45;;;;;;;6.60;1.92;;;;;;;23.92;50.91;100371.13;5088034;28;20063;-74
2023/09/20 12:00:23;;;;;;;6.00;1.98;;;;;;;23.68;51.22;100377.53;5068137;28;20774;-74
2023/09/20 12:02:51;;;;;;;6.00;1.80;;;;;;;23.83;51.55;100356.09;5051993;28;20197;-73
2023/09/20 12:05:19;;;;;;;3.45;1.80;;;;;;;24.54;50.25;100383.38;5059277;28;20098;-73
2023/09/20 12:08:00;;;;;;;4.65;1.88;;;;;;;25.08;48.57;100366.91;5068938;28;20059;-73
2023/09/20 12:10:28;;;;;;;6.45;1.83;;;;;;;25.64;46.74;100371.56;5067040;28;20081;-74
2023/09/20 12:12:56;;;;;;;4.50;1.77;;;;;;;25.31;47.16;100355.94;5087635;28;20044;-73
2023/09/20 12:15:24;;;;;;;4.68;2.13;;;;;;;25.13;47.48;100350.16;5070970;28;20044;-74
2023/09/20 12:17:55;;;;;;;5.85;1.63;;;;;;;25.61;46.02;100353.06;5070200;28;20098;-72
2023/09/20 12:20:24;;;;;;;10.18;1.58;;;;;;;25.89;45.65;100345.00;5055078;28;20089;-73
2023/09/20 12:22:53;;;;;;;11.10;2.60;;;;;;;25.87;45.40;100344.38;5088670;28;20083;-73